Time;durP1;ratioP1;P1;durP2;ratioP2;P2;SDS_P1;SDS_P2;PMS_P1;PMS_P2;Temp;Humidity;BMP_temperature;BMP_pressure;BME280_temperature;BME280_humidity;BME280_pressure;Samples;Min_cycle;Max_cycle;Signal;HPM_P1;HPM_P2
2022/11/15 00:00:32;;;;;;;33.97;17.88;;;6.60;99.90;;;;;;5027025;28;20029;-67
2022/11/15 00:02:58;;;;;;;30.75;17.50;;;6.60;99.90;;;;;;5024673;28;20152;-66
2022/11/15 00:05:23;;;;;;;31.52;17.33;;;6.60;99.90;;;;;;5024391;28;20057;-66
2022/11/15 00:07:49;;;;;;;32.95;17.33;;;6.60;99.90;;;;;;5026100;28;20073;-66
2022/11/15 00:10:15;;;;;;;32.85;17.73;;;6.60;99.90;;;;;;5047518;28;20081;-67
2022/11/15 00:12:40;;;;;;;33.22;17.70;;;6.60;99.90;;;;;;5034315;28;20037;-67
2022/11/15 00:15:07;;;;;;;32.00;16.95;;;6.60;99.90;;;;;;5041976;28;20113;-66
2022/11/15 00:17:32;;;;;;;29.92;16.67;;;6.50;99.90;;;;;;5045627;28;20876;-67
2022/11/15 00:19:58;;;;;;;31.33;17.20;;;6.50;99.90;;;;;;5029776;28;20038;-67
2022/11/15 00:22:23;;;;;;;30.33;17.30;;;6.50;99.90;;;;;;5031624;28;20103;-66
2022/11/15 00:24:49;;;;;;;32.30;17.88;;;6.50;99.90;;;;;;5031153;28;20512;-66
2022/11/15 00:27:14;;;;;;;35.13;18.33;;;6.50;99.90;;;;;;5046943;28;20532;-67
2022/11/15 00:29:43;;;;;;;30.88;16.65;;;6.50;99.90;;;;;;5035004;28;20592;-67
2022/11/15 00:32:09;;;;;;;31.00;16.83;;;6.60;99.90;;;;;;5029728;28;20041;-67
2022/11/15 00:34:35;;;;;;;30.38;16.33;;;6.60;99.90;;;;;;5048104;28;20038;-68
2022/11/15 00:37:01;;;;;;;27.13;16.30;;;6.60;99.90;;;;;;5027792;28;20037;-66
2022/11/15 00:39:26;;;;;;;27.80;15.77;;;6.60;99.90;;;;;;5035504;28;20095;-67
2022/11/15 00:41:52;;;;;;;30.85;16.02;;;6.60;99.90;;;;;;5029599;28;20034;-67
2022/11/15 00:44:17;;;;;;;29.70;16.30;;;6.70;99.90;;;;;;5049557;28;20124;-67
2022/11/15 00:46:43;;;;;;;30.77;16.27;;;6.80;99.90;;;;;;5030229;28;20048;-66
2022/11/15 00:49:08;;;;;;;30.33;16.65;;;6.80;99.90;;;;;;5029591;28;20053;-68
2022/11/15 00:51:34;;;;;;;32.17;16.15;;;6.90;99.90;;;;;;5030515;28;20132;-66
2022/11/15 00:54:00;;;;;;;34.67;16.40;;;7.00;99.90;;;;;;5035965;28;20497;-67
2022/11/15 00:56:25;;;;;;;33.97;17.45;;;7.10;99.90;;;;;;5039904;28;20156;-67
2022/11/15 00:58:52;;;;;;;30.25;16.08;;;7.10;99.90;;;;;;5033607;28;20040;-67
2022/11/15 01:01:17;;;;;;;32.47;15.73;;;7.20;99.90;;;;;;5034660;28;20048;-66
2022/11/15 01:03:43;;;;;;;33.35;17.85;;;7.20;99.90;;;;;;5029418;28;20048;-67
2022/11/15 01:06:09;;;;;;;33.38;17.42;;;7.20;99.90;;;;;;5029092;28;20115;-67
2022/11/15 01:08:35;;;;;;;29.42;15.73;;;7.30;99.90;;;;;;5031039;28;20691;-66
2022/11/15 01:11:06;;;;;;;29.52;16.05;;;7.30;99.90;;;;;;5027916;28;20030;-67
2022/11/15 01:13:33;;;;;;;32.67;17.80;;;7.30;99.90;;;;;;5032007;28;20048;-67
2022/11/15 01:16:09;;;;;;;32.97;16.13;;;7.40;99.90;;;;;;5029792;28;20044;-67
2022/11/15 01:18:35;;;;;;;35.40;16.23;;;7.40;99.90;;;;;;5031284;28;20037;-66
2022/11/15 01:21:05;;;;;;;33.90;16.58;;;7.40;99.90;;;;;;5032853;28;20036;-67
2022/11/15 01:23:31;;;;;;;29.60;16.65;;;7.40;99.90;;;;;;5053867;28;20048;-66
2022/11/15 01:26:00;;;;;;;34.53;16.27;;;7.50;99.90;;;;;;5031073;28;20482;-67
2022/11/15 01:28:31;;;;;;;29.95;15.52;;;7.50;99.90;;;;;;5043138;28;20119;-66
2022/11/15 01:31:00;;;;;;;;;;;7.50;99.90;;;;;;5030141;28;20096;-66
2022/11/15 01:33:26;;;;;;;31.48;15.18;;;7.50;99.90;;;;;;5035414;28;19921;-66
2022/11/15 01:35:52;;;;;;;31.30;14.43;;;7.50;99.90;;;;;;5028036;28;20401;-67
2022/11/15 01:38:17;;;;;;;31.13;16.00;;;7.50;99.90;;;;;;5031104;28;20042;-67
2022/11/15 01:40:43;;;;;;;32.45;17.02;;;7.60;99.90;;;;;;5030259;28;20037;-67
2022/11/15 01:43:25;;;;;;;27.85;15.38;;;7.60;99.90;;;;;;5029415;28;20056;-66
2022/11/15 01:46:13;;;;;;;36.35;16.55;;;7.60;99.90;;;;;;5029701;28;20041;-66
2022/11/15 01:48:39;;;;;;;33.92;17.50;;;7.60;99.90;;;;;;5033016;28;20174;-66
2022/11/15 01:51:09;;;;;;;35.58;16.95;;;7.60;99.90;;;;;;5030051;28;20061;-66
2022/11/15 01:53:38;;;;;;;30.58;16.05;;;7.60;99.90;;;;;;5023606;28;20132;-66
2022/11/15 01:56:07;;;;;;;35.55;16.65;;;7.60;99.90;;;;;;5031477;28;20086;-65
2022/11/15 01:58:34;;;;;;;31.58;16.58;;;7.60;99.90;;;;;;5041556;28;20056;-66
2022/11/15 02:00:59;;;;;;;31.48;16.40;;;7.60;99.90;;;;;;5034658;28;20138;-65
2022/11/15 02:03:43;;;;;;;35.03;16.30;;;7.60;99.90;;;;;;5032107;28;20075;-65
2022/11/15 02:06:10;;;;;;;33.83;16.17;;;7.60;99.90;;;;;;5032840;28;20064;-66
2022/11/15 02:08:35;;;;;;;31.23;16.05;;;7.60;99.90;;;;;;5029797;28;20068;-65
2022/11/15 02:11:01;;;;;;;33.65;15.52;;;7.60;99.90;;;;;;5028602;28;20037;-65
2022/11/15 02:13:27;;;;;;;35.33;16.52;;;7.60;99.90;;;;;;5035795;28;20060;-66
2022/11/15 02:16:47;;;;;;;36.05;17.02;;;7.60;99.90;;;;;;5024554;28;20610;-65
2022/11/15 02:19:27;;;;;;;35.00;16.65;;;7.70;99.90;;;;;;5025551;28;20041;-65
2022/11/15 02:22:04;;;;;;;;;;;7.60;99.90;;;;;;5027078;28;20401;-65
2022/11/15 02:24:48;;;;;;;30.50;15.65;;;7.60;99.90;;;;;;5029078;28;20019;-65
2022/11/15 02:27:56;;;;;;;32.20;15.95;;;7.70;99.90;;;;;;5028614;28;20551;-65
2022/11/15 02:30:24;;;;;;;31.17;15.63;;;7.70;99.90;;;;;;5013382;28;20385;-65
2022/11/15 02:33:18;;;;;;;28.77;15.88;;;7.70;99.90;;;;;;5027516;28;20041;-65
2022/11/15 02:36:02;;;;;;;34.22;16.10;;;7.70;99.90;;;;;;5029683;28;20042;-65
2022/11/15 02:38:49;;;;;;;29.45;15.82;;;7.70;99.90;;;;;;5029661;28;20493;-67
2022/11/15 02:41:23;;;;;;;32.58;15.52;;;7.70;99.90;;;;;;5036369;28;20046;-65
2022/11/15 02:43:57;;;;;;;32.38;15.57;;;7.70;99.90;;;;;;5034171;28;20033;-65
2022/11/15 02:49:17;;;;;;;38.00;16.20;;;7.80;99.90;;;;;;5032873;28;20049;-65
2022/11/15 02:51:46;;;;;;;28.63;15.10;;;7.80;99.90;;;;;;5036111;28;20033;-65
2022/11/15 02:54:15;;;;;;;35.75;16.60;;;7.80;99.90;;;;;;5033807;28;20039;-66
2022/11/15 02:56:45;;;;;;;34.50;16.73;;;7.80;99.90;;;;;;5031844;28;20040;-65
2022/11/15 02:59:40;;;;;;;36.25;15.95;;;7.80;99.90;;;;;;5036874;28;20060;-65
2022/11/15 03:02:31;;;;;;;33.58;15.55;;;7.80;99.90;;;;;;5031896;28;20036;-66
2022/11/15 03:05:15;;;;;;;37.45;16.50;;;7.90;99.90;;;;;;5034407;28;20056;-65
2022/11/15 03:07:48;;;;;;;37.78;17.63;;;7.90;99.90;;;;;;5030936;28;20052;-65
2022/11/15 03:10:42;;;;;;;39.92;17.85;;;7.90;99.90;;;;;;5032747;28;20373;-65
2022/11/15 03:13:15;;;;;;;38.90;18.10;;;7.90;99.90;;;;;;5036122;28;20044;-65
2022/11/15 03:16:02;;;;;;;40.58;18.67;;;7.90;99.90;;;;;;5031421;28;20029;-66
2022/11/15 03:18:33;;;;;;;41.22;17.08;;;7.90;99.90;;;;;;5033549;28;20422;-65
2022/11/15 03:21:02;;;;;;;43.63;18.25;;;7.90;99.90;;;;;;5031037;28;20037;-66
2022/11/15 03:23:29;;;;;;;46.40;19.70;;;7.90;99.90;;;;;;5031635;28;20493;-65
2022/11/15 03:25:58;;;;;;;44.65;19.00;;;7.90;99.90;;;;;;5044883;28;20041;-65
2022/11/15 03:28:29;;;;;;;41.83;18.92;;;7.90;99.90;;;;;;5040442;28;20064;-65
2022/11/15 03:30:56;;;;;;;45.08;20.02;;;7.90;99.90;;;;;;5031078;28;20067;-65
2022/11/15 03:33:22;;;;;;;48.35;19.40;;;7.90;99.90;;;;;;5013490;28;20053;-65
2022/11/15 03:35:49;;;;;;;45.25;19.30;;;7.90;99.90;;;;;;5036680;28;20033;-66
2022/11/15 03:38:26;;;;;;;50.05;20.23;;;7.90;99.90;;;;;;5047527;28;20040;-65
2022/11/15 03:40:54;;;;;;;47.50;19.45;;;8.00;99.90;;;;;;5038583;28;20044;-65
2022/11/15 03:43:54;;;;;;;45.10;19.60;;;8.00;99.90;;;;;;5031522;28;20496;-65
2022/11/15 03:46:38;;;;;;;42.97;19.70;;;8.00;99.90;;;;;;5031891;28;20052;-65
2022/11/15 03:49:14;;;;;;;48.58;19.85;;;8.00;99.90;;;;;;5032316;28;20503;-65
2022/11/15 03:51:40;;;;;;;49.10;20.95;;;8.00;99.90;;;;;;5041899;28;20425;-65
2022/11/15 03:54:06;;;;;;;46.35;19.38;;;8.00;99.90;;;;;;5034682;28;20143;-65
2022/11/15 03:56:32;;;;;;;44.22;20.27;;;8.00;99.90;;;;;;5042688;28;20110;-65
2022/11/15 03:58:57;;;;;;;46.60;20.42;;;8.10;99.90;;;;;;5031566;28;20041;-65
2022/11/15 04:01:23;;;;;;;58.00;22.30;;;8.10;99.90;;;;;;5035255;28;20037;-65
2022/11/15 04:03:48;;;;;;;49.97;21.80;;;8.10;99.90;;;;;;5039827;28;20079;-65
2022/11/15 04:06:14;;;;;;;53.92;22.02;;;8.10;99.90;;;;;;5042608;28;20049;-65
2022/11/15 04:08:40;;;;;;;56.35;22.88;;;8.10;99.90;;;;;;5031539;28;20044;-64
2022/11/15 04:11:05;;;;;;;55.97;23.70;;;8.10;99.90;;;;;;5039691;28;20777;-65
2022/11/15 04:13:31;;;;;;;61.58;24.15;;;8.10;99.90;;;;;;5031071;28;20694;-65
2022/11/15 04:15:56;;;;;;;70.50;25.80;;;8.10;99.90;;;;;;5031605;28;20401;-65
2022/11/15 04:18:22;;;;;;;61.35;23.10;;;8.10;99.90;;;;;;5035576;28;20512;-65
2022/11/15 04:26:14;;;;;;;;;;;8.10;99.90;;;;;;5033287;28;20049;-65
2022/11/15 04:29:34;;;;;;;53.05;22.23;;;8.10;99.90;;;;;;5032442;28;19917;-65
2022/11/15 04:31:26;;;;;;;56.30;22.52;;;8.10;99.90;;;;;;5028533;28;20052;-65
2022/11/15 04:33:52;;;;;;;54.35;21.40;;;8.10;99.90;;;;;;5037288;28;20038;-65
2022/11/15 04:39:03;;;;;;;53.92;21.42;;;8.10;99.90;;;;;;5034776;28;20072;-65
2022/11/15 04:41:29;;;;;;;56.20;22.50;;;8.10;99.90;;;;;;5041747;28;20500;-65
2022/11/15 04:43:55;;;;;;;53.13;23.02;;;8.10;99.90;;;;;;5030414;28;20363;-65
2022/11/15 04:46:20;;;;;;;56.75;22.40;;;8.00;99.90;;;;;;5033445;28;20037;-65
2022/11/15 04:48:46;;;;;;;55.92;24.13;;;8.00;99.90;;;;;;5034895;28;20091;-65
2022/11/15 04:51:12;;;;;;;57.78;24.10;;;8.00;99.90;;;;;;5033093;28;20047;-65
2022/11/15 04:53:37;;;;;;;62.63;25.00;;;8.10;99.90;;;;;;5033354;28;20037;-65
2022/11/15 04:56:03;;;;;;;53.85;22.85;;;8.10;99.90;;;;;;5033566;28;20037;-65
2022/11/15 04:58:28;;;;;;;56.75;24.73;;;8.10;99.90;;;;;;5029621;28;20037;-65
2022/11/15 05:00:54;;;;;;;62.25;23.83;;;8.10;99.90;;;;;;5029425;28;20041;-66
2022/11/15 05:06:04;;;;;;;65.90;27.35;;;8.10;99.90;;;;;;5028651;28;20452;-65
2022/11/15 05:08:30;;;;;;;67.03;25.48;;;8.20;99.90;;;;;;5029349;28;20063;-65
2022/11/15 05:10:55;;;;;;;73.00;27.75;;;8.20;99.90;;;;;;5033268;28;20424;-64
2022/11/15 05:13:21;;;;;;;72.55;28.48;;;8.20;99.90;;;;;;5040999;28;20047;-65
2022/11/15 05:15:47;;;;;;;83.43;30.15;;;8.20;99.90;;;;;;5037629;28;20033;-65
2022/11/15 05:18:12;;;;;;;87.63;31.20;;;8.20;99.90;;;;;;5033223;28;20077;-67
2022/11/15 05:20:38;;;;;;;77.78;30.63;;;8.30;99.90;;;;;;5029696;28;20080;-65
2022/11/15 05:23:04;;;;;;;83.38;31.08;;;8.30;99.90;;;;;;5029023;28;20561;-65
2022/11/15 05:25:30;;;;;;;80.25;31.15;;;8.30;99.90;;;;;;5035234;28;20485;-65
2022/11/15 05:27:55;;;;;;;81.90;31.98;;;8.30;99.90;;;;;;5031862;28;20092;-65
2022/11/15 05:30:21;;;;;;;90.35;32.22;;;8.40;99.90;;;;;;5031942;28;20591;-65
2022/11/15 05:32:47;;;;;;;83.65;33.58;;;8.40;99.90;;;;;;5035778;28;20083;-65
2022/11/15 05:35:29;;;;;;;83.18;32.53;;;8.40;99.90;;;;;;5029451;28;20061;-65
2022/11/15 05:37:55;;;;;;;91.78;32.90;;;8.40;99.90;;;;;;5024597;28;20095;-65
2022/11/15 05:40:20;;;;;;;79.45;32.55;;;8.50;99.90;;;;;;5042665;28;20465;-65
2022/11/15 05:42:47;;;;;;;91.43;33.28;;;8.50;99.90;;;;;;5029656;28;20095;-65
2022/11/15 05:45:13;;;;;;;94.38;33.97;;;8.50;99.90;;;;;;5044324;28;20040;-65
2022/11/15 05:47:39;;;;;;;88.25;33.85;;;8.60;99.90;;;;;;5043278;28;20038;-65
2022/11/15 05:50:06;;;;;;;93.93;35.58;;;8.60;99.90;;;;;;5039578;28;20118;-65
2022/11/15 05:52:35;;;;;;;88.72;35.33;;;8.60;99.90;;;;;;5037439;28;20073;-65
2022/11/15 05:55:04;;;;;;;78.85;32.33;;;8.70;99.90;;;;;;5049912;28;20424;-65
2022/11/15 05:57:30;;;;;;;92.22;35.13;;;8.70;99.90;;;;;;5036171;28;20036;-65
2022/11/15 05:59:56;;;;;;;78.63;32.17;;;8.70;99.90;;;;;;5032043;28;20056;-65
2022/11/15 06:02:21;;;;;;;95.95;35.17;;;8.80;99.90;;;;;;5037503;28;20182;-65
2022/11/15 06:04:47;;;;;;;84.07;34.95;;;8.80;99.90;;;;;;5046148;28;20532;-64
2022/11/15 06:07:12;;;;;;;86.25;33.45;;;8.90;99.90;;;;;;5036117;28;20037;-65
2022/11/15 06:09:38;;;;;;;81.90;34.22;;;8.90;99.90;;;;;;5032550;28;20040;-65
2022/11/15 06:12:04;;;;;;;84.65;34.13;;;9.00;99.90;;;;;;5027369;28;20049;-65
2022/11/15 06:14:29;;;;;;;89.97;35.28;;;9.00;99.90;;;;;;5035319;28;20045;-65
2022/11/15 06:16:55;;;;;;;85.75;33.53;;;9.10;99.90;;;;;;5037869;28;20050;-65
2022/11/15 06:19:21;;;;;;;80.43;32.47;;;9.10;99.90;;;;;;5027711;28;20045;-65
2022/11/15 06:21:46;;;;;;;73.15;32.30;;;9.10;99.90;;;;;;5026942;28;20460;-67
2022/11/15 06:24:12;;;;;;;73.68;31.10;;;9.20;99.90;;;;;;5023990;28;20130;-66
2022/11/15 06:26:37;;;;;;;81.95;31.00;;;9.30;99.90;;;;;;5029979;28;20037;-65
2022/11/15 06:29:04;;;;;;;75.57;31.15;;;9.30;99.90;;;;;;5031390;28;20134;-65
2022/11/15 06:31:30;;;;;;;76.28;30.52;;;9.40;99.90;;;;;;5037597;28;20037;-65
2022/11/15 06:33:55;;;;;;;71.68;31.63;;;9.40;99.90;;;;;;5031358;28;20056;-66
2022/11/15 06:36:21;;;;;;;73.90;31.00;;;9.50;99.90;;;;;;5030701;28;20033;-65
2022/11/15 06:38:46;;;;;;;69.57;30.65;;;9.60;99.90;;;;;;5037621;28;20036;-66
2022/11/15 06:41:13;;;;;;;66.82;30.02;;;9.60;99.90;;;;;;5035088;28;20041;-67
2022/11/15 06:43:40;;;;;;;70.30;29.23;;;9.60;99.90;;;;;;5036973;28;20036;-65
2022/11/15 06:46:06;;;;;;;62.95;27.92;;;9.60;99.90;;;;;;5033125;28;20049;-65
2022/11/15 06:48:33;;;;;;;63.45;27.98;;;9.60;99.90;;;;;;5029796;28;20049;-65
2022/11/15 06:51:01;;;;;;;62.30;26.88;;;9.70;99.90;;;;;;5024574;28;20519;-65
2022/11/15 06:53:27;;;;;;;67.95;28.73;;;9.70;99.90;;;;;;5031557;28;20048;-66
2022/11/15 06:55:53;;;;;;;60.42;26.35;;;9.70;99.90;;;;;;5041065;28;20076;-65
2022/11/15 06:58:20;;;;;;;59.10;26.67;;;9.80;99.90;;;;;;5039174;28;20575;-66
2022/11/15 07:00:46;;;;;;;63.58;26.63;;;9.80;99.90;;;;;;5038700;28;20095;-65
2022/11/15 07:03:11;;;;;;;58.47;27.75;;;9.90;99.90;;;;;;5030476;28;20054;-66
2022/11/15 07:05:37;;;;;;;56.60;26.70;;;9.90;99.90;;;;;;5027693;28;20060;-66
2022/11/15 07:08:03;;;;;;;55.08;25.25;;;9.90;99.90;;;;;;5036381;28;20048;-65
2022/11/15 07:10:29;;;;;;;55.92;25.45;;;9.90;99.90;;;;;;5033482;28;20041;-65
2022/11/15 07:12:55;;;;;;;54.17;25.08;;;9.90;99.90;;;;;;5035421;28;20187;-65
2022/11/15 07:15:24;;;;;;;54.33;24.60;;;9.90;99.90;;;;;;5044204;28;20827;-65
2022/11/15 07:17:49;;;;;;;51.00;24.90;;;9.90;99.90;;;;;;5036381;28;20037;-65
2022/11/15 07:20:16;;;;;;;49.95;25.27;;;10.00;99.90;;;;;;5034696;28;20040;-65
2022/11/15 07:22:42;;;;;;;54.95;24.33;;;10.00;99.90;;;;;;5036059;28;20405;-65
2022/11/15 07:25:09;;;;;;;54.17;23.38;;;10.00;99.90;;;;;;5033770;28;20046;-65
2022/11/15 07:27:34;;;;;;;52.20;24.20;;;10.00;99.90;;;;;;5047171;28;20045;-66
2022/11/15 07:30:00;;;;;;;49.42;23.95;;;10.00;99.90;;;;;;5045270;28;20049;-66
2022/11/15 07:32:25;;;;;;;50.17;23.10;;;10.10;99.90;;;;;;5050321;28;20041;-65
2022/11/15 07:34:51;;;;;;;53.97;24.60;;;10.10;99.90;;;;;;5037899;28;20072;-65
2022/11/15 07:37:17;;;;;;;49.70;22.70;;;10.10;99.90;;;;;;5036258;28;20086;-65
2022/11/15 07:39:43;;;;;;;47.85;22.17;;;10.10;99.90;;;;;;5039995;28;20037;-65
2022/11/15 07:44:53;;;;;;;47.28;23.48;;;10.20;99.90;;;;;;5043114;28;20076;-65
2022/11/15 07:47:18;;;;;;;46.78;22.60;;;10.20;99.90;;;;;;5043638;28;20096;-66
2022/11/15 07:49:45;;;;;;;51.10;23.08;;;10.20;99.90;;;;;;5047186;28;20044;-65
2022/11/15 07:52:12;;;;;;;44.45;22.27;;;10.20;99.90;;;;;;5036156;28;20089;-65
2022/11/15 07:54:37;;;;;;;51.30;22.50;;;10.20;99.90;;;;;;5039608;28;20041;-66
2022/11/15 07:57:03;;;;;;;46.38;22.60;;;10.30;99.90;;;;;;5044426;28;20044;-65
2022/11/15 07:59:28;;;;;;;48.10;22.73;;;10.30;99.90;;;;;;5047613;28;20036;-65
2022/11/15 08:01:54;;;;;;;46.17;23.38;;;10.30;99.90;;;;;;5038525;28;20379;-65
2022/11/15 08:04:20;;;;;;;49.38;23.42;;;10.30;99.90;;;;;;5037730;28;20103;-65
2022/11/15 08:06:45;;;;;;;44.55;22.67;;;10.30;99.90;;;;;;5056101;28;20409;-66
2022/11/15 08:09:11;;;;;;;41.63;21.58;;;10.40;99.90;;;;;;5033943;28;20400;-65
2022/11/15 08:11:37;;;;;;;42.10;21.23;;;10.40;99.90;;;;;;5037619;28;20044;-66
2022/11/15 08:14:02;;;;;;;43.92;21.17;;;10.50;99.90;;;;;;5042300;28;20119;-65
2022/11/15 08:16:28;;;;;;;43.55;21.38;;;10.50;99.90;;;;;;5045271;28;20033;-65
2022/11/15 08:18:53;;;;;;;44.42;22.23;;;10.50;99.90;;;;;;5051690;28;20037;-65
2022/11/15 08:21:20;;;;;;;41.53;22.15;;;10.50;99.90;;;;;;5043981;28;20507;-65
2022/11/15 08:23:46;;;;;;;37.70;20.38;;;10.60;99.90;;;;;;5035852;28;20048;-65
2022/11/15 08:26:12;;;;;;;39.80;20.83;;;10.60;99.90;;;;;;5046116;28;20037;-65
2022/11/15 08:28:37;;;;;;;42.38;21.33;;;10.60;99.90;;;;;;5052320;28;20040;-65
2022/11/15 08:31:03;;;;;;;41.40;20.63;;;10.70;99.90;;;;;;5037908;28;20505;-65
2022/11/15 08:33:30;;;;;;;35.55;19.23;;;10.70;99.90;;;;;;5037109;28;20042;-67
2022/11/15 08:35:57;;;;;;;38.38;20.40;;;10.80;99.90;;;;;;5031614;28;20048;-65
2022/11/15 08:38:23;;;;;;;41.75;20.48;;;10.80;99.90;;;;;;5033792;28;20083;-65
2022/11/15 08:40:50;;;;;;;38.30;21.20;;;10.90;99.90;;;;;;5042961;28;20408;-65
2022/11/15 08:43:16;;;;;;;39.65;20.58;;;11.00;99.90;;;;;;5037242;28;20149;-65
2022/11/15 08:45:41;;;;;;;36.13;20.40;;;11.10;99.90;;;;;;5053165;28;20072;-65
2022/11/15 08:48:07;;;;;;;37.72;20.95;;;11.10;99.90;;;;;;5033383;28;20077;-65
2022/11/15 08:50:33;;;;;;;41.83;20.85;;;11.10;99.90;;;;;;5030105;28;20045;-65
2022/11/15 08:53:08;;;;;;;36.80;19.95;;;11.20;99.90;;;;;;5047442;28;20102;-66
2022/11/15 08:55:36;;;;;;;34.33;19.52;;;11.20;99.90;;;;;;5052027;28;20047;-66
2022/11/15 08:58:02;;;;;;;37.45;19.77;;;11.30;99.90;;;;;;5050627;28;20040;-66
2022/11/15 09:00:29;;;;;;;33.78;19.38;;;11.30;99.90;;;;;;5032835;28;20056;-65
2022/11/15 09:02:55;;;;;;;33.80;19.73;;;11.40;99.90;;;;;;5033114;28;20048;-65
2022/11/15 09:05:20;;;;;;;36.10;20.70;;;11.40;99.90;;;;;;5041898;28;20086;-65
2022/11/15 09:07:46;;;;;;;39.15;20.45;;;11.40;99.90;;;;;;5032341;28;20531;-65
2022/11/15 09:10:12;;;;;;;34.63;19.38;;;11.40;99.90;;;;;;5047376;28;20122;-65
2022/11/15 09:12:37;;;;;;;34.05;19.20;;;11.30;99.90;;;;;;5046242;28;20465;-65
2022/11/15 09:15:04;;;;;;;32.38;19.25;;;11.30;99.90;;;;;;5041047;28;20100;-67
2022/11/15 09:17:30;;;;;;;32.88;19.10;;;11.30;99.90;;;;;;5036310;28;20071;-66
2022/11/15 09:19:55;;;;;;;33.10;18.95;;;11.40;99.90;;;;;;5043287;28;20068;-66
2022/11/15 09:22:21;;;;;;;31.63;18.95;;;11.40;99.90;;;;;;5032285;28;20037;-65
2022/11/15 09:24:46;;;;;;;34.42;19.85;;;11.40;99.90;;;;;;5044706;28;20045;-65
2022/11/15 09:27:13;;;;;;;36.70;19.85;;;11.40;99.90;;;;;;5042436;28;20761;-65
2022/11/15 09:29:38;;;;;;;35.42;19.30;;;11.50;99.90;;;;;;5042159;28;20111;-65
2022/11/15 09:32:04;;;;;;;30.15;19.35;;;11.50;99.90;;;;;;5032060;28;20037;-65
2022/11/15 09:34:30;;;;;;;35.47;19.75;;;11.50;99.90;;;;;;5013844;28;20037;-65
2022/11/15 09:36:55;;;;;;;33.15;18.70;;;11.60;99.90;;;;;;5029310;28;20034;-66
2022/11/15 09:39:21;;;;;;;33.75;19.98;;;11.70;99.90;;;;;;5026848;28;20145;-66
2022/11/15 09:42:10;;;;;;;30.80;18.40;;;11.70;99.90;;;;;;5035717;28;20034;-65
2022/11/15 09:44:47;;;;;;;31.75;18.23;;;11.70;99.90;;;;;;5049417;28;20048;-66
2022/11/15 09:47:44;;;;;;;32.70;19.63;;;11.70;99.90;;;;;;5035455;28;20049;-66
2022/11/15 09:50:13;;;;;;;33.78;19.80;;;11.70;99.90;;;;;;5033316;28;20053;-65
2022/11/15 09:52:42;;;;;;;35.67;19.98;;;11.70;99.90;;;;;;5028728;28;20056;-65
2022/11/15 09:55:16;;;;;;;31.85;19.23;;;11.60;99.90;;;;;;5043682;28;20063;-65
2022/11/15 09:57:57;;;;;;;37.60;21.52;;;11.60;99.90;;;;;;5040283;28;20059;-65
2022/11/15 10:00:37;;;;;;;33.75;20.23;;;11.60;99.90;;;;;;5046176;28;20045;-66
2022/11/15 10:03:27;;;;;;;35.75;19.58;;;11.70;99.90;;;;;;5040115;28;20163;-65
2022/11/15 10:05:57;;;;;;;39.35;20.23;;;11.60;99.90;;;;;;5046394;28;20132;-65
2022/11/15 10:09:00;;;;;;;40.78;21.98;;;11.60;99.90;;;;;;5034040;28;20045;-64
2022/11/15 10:11:28;;;;;;;35.78;21.60;;;11.60;99.90;;;;;;5039371;28;20044;-65
2022/11/15 10:13:59;;;;;;;37.40;21.17;;;11.60;99.90;;;;;;5043353;28;20408;-65
2022/11/15 10:16:33;;;;;;;;;;;11.70;99.90;;;;;;5042770;28;20033;-65
2022/11/15 10:19:12;;;;;;;37.22;21.50;;;11.60;99.90;;;;;;5038276;28;19917;-65
2022/11/15 10:21:43;;;;;;;40.00;22.23;;;11.60;99.90;;;;;;5041676;28;20048;-65
2022/11/15 10:24:17;;;;;;;36.15;22.00;;;11.70;99.90;;;;;;5022962;28;20037;-65
2022/11/15 10:26:48;;;;;;;38.03;22.45;;;11.60;99.90;;;;;;5044096;28;20055;-65
2022/11/15 10:29:21;;;;;;;41.70;22.95;;;11.50;99.90;;;;;;5032994;28;20052;-66
2022/11/15 10:31:47;;;;;;;41.03;22.40;;;11.50;99.90;;;;;;5038995;28;20048;-65
2022/11/15 10:34:15;;;;;;;41.35;22.33;;;11.40;99.90;;;;;;5038799;28;20045;-65
2022/11/15 10:36:46;;;;;;;39.72;21.42;;;11.40;99.90;;;;;;5045650;28;20374;-65
2022/11/15 10:39:13;;;;;;;;;;;11.30;99.90;;;;;;5031841;28;20061;-65
2022/11/15 10:41:41;;;;;;;44.58;22.33;;;11.30;99.90;;;;;;5044350;28;21867;-64
2022/11/15 10:44:07;;;;;;;43.67;22.80;;;11.20;99.90;;;;;;5037808;28;20036;-65
2022/11/15 10:46:34;;;;;;;41.78;22.48;;;11.20;99.90;;;;;;5041941;28;20041;-65
2022/11/15 10:49:15;;;;;;;43.10;22.38;;;11.20;99.90;;;;;;5042854;28;20045;-65
2022/11/15 10:51:53;;;;;;;42.05;22.40;;;11.20;99.90;;;;;;5041855;28;20036;-65
2022/11/15 10:54:34;;;;;;;39.42;22.40;;;11.30;99.90;;;;;;5048870;28;20037;-66
2022/11/15 10:57:05;;;;;;;42.28;22.90;;;11.40;99.90;;;;;;5041894;28;20781;-65
2022/11/15 10:59:34;;;;;;;38.15;21.77;;;11.40;99.90;;;;;;5045102;28;20104;-65
2022/11/15 11:02:00;;;;;;;40.08;22.13;;;11.40;99.90;;;;;;5042338;28;20037;-65
2022/11/15 11:04:26;;;;;;;37.25;22.27;;;11.40;99.90;;;;;;5044986;28;20033;-65
2022/11/15 11:06:58;;;;;;;40.65;23.35;;;11.40;99.90;;;;;;5036447;28;20505;-65
2022/11/15 11:09:38;;;;;;;40.92;23.40;;;11.40;99.90;;;;;;5032586;28;20076;-64
2022/11/15 11:12:05;;;;;;;;;;;11.70;99.90;;;;;;5052420;28;20365;-66
2022/11/15 11:14:36;;;;;;;32.67;19.52;;;11.80;99.90;;;;;;5050853;28;20012;-65
2022/11/15 11:17:31;;;;;;;31.80;19.25;;;11.80;99.90;;;;;;5047354;28;20041;-66
2022/11/15 11:20:01;;;;;;;31.10;19.80;;;11.80;99.90;;;;;;5052314;28;20473;-64
2022/11/15 11:22:34;;;;;;;;;;;11.80;99.90;;;;;;5049304;28;20544;-64
2022/11/15 11:25:37;;;;;;;29.52;17.75;;;11.90;99.90;;;;;;5053222;28;19971;-64
2022/11/15 11:28:32;;;;;;;29.52;18.13;;;12.00;99.90;;;;;;5045608;28;20063;-65
2022/11/15 11:31:27;;;;;;;21.92;14.25;;;12.00;99.90;;;;;;5046848;28;20055;-66
2022/11/15 11:34:11;;;;;;;21.83;13.15;;;12.10;99.90;;;;;;5051836;28;20041;-66
2022/11/15 11:37:00;;;;;;;23.17;13.52;;;12.00;99.90;;;;;;5048947;28;20061;-66
2022/11/15 11:39:31;;;;;;;20.90;12.73;;;11.90;99.90;;;;;;5028471;28;20033;-65
2022/11/15 11:42:14;;;;;;;19.17;12.00;;;11.90;99.90;;;;;;5046636;28;20112;-65
2022/11/15 11:44:43;;;;;;;16.33;10.68;;;11.90;99.90;;;;;;5040991;28;20044;-65
2022/11/15 11:47:20;;;;;;;15.65;9.57;;;12.00;99.90;;;;;;5048306;28;20477;-65
2022/11/15 11:49:52;;;;;;;12.98;7.35;;;12.00;99.90;;;;;;5048716;28;20120;-67
2022/11/15 11:52:49;;;;;;;9.55;6.57;;;11.90;99.90;;;;;;5034569;28;20049;-66
2022/11/15 11:55:21;;;;;;;8.90;6.07;;;11.90;99.90;;;;;;5048086;28;20041;-67
2022/11/15 11:58:10;;;;;;;9.40;5.75;;;11.90;99.90;;;;;;5040292;28;20038;-64
2022/11/15 12:00:41;;;;;;;8.52;5.10;;;12.00;99.90;;;;;;5041641;28;20034;-63
2022/11/15 12:03:16;;;;;;;9.25;5.53;;;12.00;99.90;;;;;;5050826;28;20055;-65
2022/11/15 12:05:49;;;;;;;7.10;4.80;;;11.90;99.90;;;;;;5044019;28;20119;-64
2022/11/15 12:08:27;;;;;;;9.50;4.38;;;11.80;99.90;;;;;;5032911;28;20472;-64
2022/11/15 12:11:17;;;;;;;12.80;5.47;;;11.90;99.90;;;;;;5041231;28;20072;-65
2022/11/15 12:13:43;;;;;;;9.60;4.60;;;11.80;99.90;;;;;;5041232;28;20037;-65
2022/11/15 12:16:23;;;;;;;9.35;4.90;;;11.80;99.90;;;;;;5043395;28;20032;-65
2022/11/15 12:18:53;;;;;;;8.63;4.68;;;11.80;99.90;;;;;;5051502;28;20069;-64
2022/11/15 12:21:36;;;;;;;7.22;4.80;;;11.70;99.90;;;;;;5045509;28;20124;-65
2022/11/15 12:24:12;;;;;;;7.50;5.00;;;11.60;99.90;;;;;;5033795;28;20045;-64
2022/11/15 12:26:46;;;;;;;7.70;4.78;;;11.50;99.90;;;;;;5032555;28;20053;-64
2022/11/15 12:29:32;;;;;;;7.05;4.28;;;11.50;99.90;;;;;;5038808;28;20072;-65
2022/11/15 12:31:59;;;;;;;8.77;4.85;;;11.50;99.90;;;;;;5041106;28;20073;-64
2022/11/15 12:34:28;;;;;;;8.55;5.10;;;11.50;99.90;;;;;;5035175;28;20485;-64
2022/11/15 12:36:55;;;;;;;8.88;4.95;;;11.50;99.90;;;;;;5035506;28;20117;-64
2022/11/15 12:39:41;;;;;;;9.30;5.78;;;11.50;99.90;;;;;;5045961;28;20029;-64
2022/11/15 12:42:06;;;;;;;10.20;5.38;;;11.50;99.90;;;;;;5051458;28;20043;-64
2022/11/15 12:44:32;;;;;;;8.20;4.60;;;11.60;99.90;;;;;;5047046;28;20033;-64
2022/11/15 12:46:57;;;;;;;9.13;5.15;;;11.60;99.90;;;;;;5040727;28;20106;-66
2022/11/15 12:49:23;;;;;;;9.32;4.90;;;11.50;99.90;;;;;;5032172;28;20057;-64
2022/11/15 12:51:48;;;;;;;7.95;4.13;;;11.70;99.90;;;;;;5034636;28;20038;-63
2022/11/15 12:54:23;;;;;;;6.63;3.90;;;11.60;99.90;;;;;;5031253;28;20041;-65
2022/11/15 12:57:06;;;;;;;6.97;3.83;;;11.60;99.90;;;;;;5032558;28;20041;-64
2022/11/15 13:00:02;;;;;;;7.88;3.95;;;11.80;99.90;;;;;;5034012;28;20045;-64
2022/11/15 13:02:45;;;;;;;9.18;3.58;;;12.00;99.90;;;;;;5045447;28;20919;-64
2022/11/15 13:05:19;;;;;;;5.32;3.55;;;12.30;99.90;;;;;;5039456;28;20508;-64
2022/11/15 13:07:45;;;;;;;5.45;2.90;;;12.50;99.90;;;;;;5042770;28;20611;-65